Terminal Aerodrome Forecast
Issued by NWS Binghamton, NY

Home | Current Version | Previous Version | Text Only | Print | Product List | Glossary On
Versions: 1 2 3 4 5 6 7 8 9 10 11 12 13 14 15 16 17 18
000
FTUS41 KBGM 081406 AAA
TAFSYR
TAF AMD
KSYR 081406Z 0814/0912 25014G22KT P6SM -SHSN OVC040
      TEMPO 0814/0817 1 1/2SM -SHSN OVC025
     FM090300 26016G26KT P6SM OVC070
     FM090400 26016G26KT 2SM -SHSN OVC030
     FM090700 28014G23KT 1SM -SHSN OVC020=

USA.gov is the U.S. government's official web portal to all federal, state and local government web resources and services.